Terminal Aerodrome Forecast
Issued by NWS Cleveland, OH

Home | Current Version | Previous Version | Graphics & Text | Print | Product List | Glossary On
Versions: 1 2 3 4 5 6 7 8 9 10 11 12 13 14 15 16 17 18 19 20
540
FTUS41 KCLE 172320
TAFYNG
TAF
KYNG 172320Z 1800/1824 17006KT P6SM OVC100
     FM180800 21006KT 6SM BR OVC035
      TEMPO 1810/1814 3SM BR BKN012
     FM181500 21007KT 6SM BR OVC012
     FM182000 22008KT 6SM BR OVC008
     FM182300 22008KT 5SM BR OVC006=

USA.gov is the U.S. government's official web portal to all federal, state and local government web resources and services.